VLG40JL LEMH-LEBL
Flight info
| Callsign | VLG40JL |
|---|---|
| Flight time | 0h 30m |
| Altitude | 16000 |
| Route | LUNIK Q255 OSTUR |
| Aircraft | A21N/M-SDE2E3FGHIRWXY/LB1 |
Departure
| Time | 2026-05-05 13:49 |
|---|---|
| Airport | Menorca Airport (LEMH) |
Arrival
| Time | 2026-05-05 14:20 |
|---|---|
| Airport | Josep Tarradellas Barcelona-El Prat Airport (LEBL) |
| Time | Latitude | Longitude | Altitude | Speed | Heading |
|---|---|---|---|---|---|
| 2026-05-05 13:29 | 39.86533 | 4.22425 | 283 ft | 0 kts | 100° |
| 2026-05-05 13:42 | 39.86533 | 4.22422 | 283 ft | 1 kts | 100° |
| 2026-05-05 13:42 | 39.86536 | 4.22404 | 283 ft | 2 kts | 100° |
| 2026-05-05 13:42 | 39.86539 | 4.22384 | 283 ft | 2 kts | 100° |
| 2026-05-05 13:42 | 39.86542 | 4.22365 | 283 ft | 2 kts | 116° |
| 2026-05-05 13:43 | 39.86551 | 4.22349 | 283 ft | 2 kts | 140° |
| 2026-05-05 13:43 | 39.86564 | 4.22339 | 284 ft | 2 kts | 163° |
| 2026-05-05 13:43 | 39.86578 | 4.22337 | 284 ft | 1 kts | 185° |
| 2026-05-05 13:43 | 39.86584 | 4.22338 | 284 ft | 1 kts | 190° |
| 2026-05-05 13:44 | 39.86586 | 4.22339 | 284 ft | 0 kts | 189° |
| 2026-05-05 13:45 | 39.86574 | 4.22336 | 284 ft | 3 kts | 191° |
| 2026-05-05 13:46 | 39.86541 | 4.22298 | 284 ft | 8 kts | 257° |
| 2026-05-05 13:46 | 39.86549 | 4.22215 | 285 ft | 10 kts | 286° |
| 2026-05-05 13:46 | 39.86600 | 4.22173 | 288 ft | 9 kts | 359° |
| 2026-05-05 13:46 | 39.86679 | 4.22189 | 288 ft | 13 kts | 8° |
| 2026-05-05 13:47 | 39.86782 | 4.22206 | 289 ft | 16 kts | 7° |
| 2026-05-05 13:47 | 39.86901 | 4.22233 | 291 ft | 18 kts | 10° |
| 2026-05-05 13:47 | 39.87031 | 4.22259 | 296 ft | 19 kts | 8° |
| 2026-05-05 13:47 | 39.87164 | 4.22287 | 300 ft | 19 kts | 9° |
| 2026-05-05 13:48 | 39.87304 | 4.22317 | 305 ft | 20 kts | 9° |
| 2026-05-05 13:48 | 39.87391 | 4.22272 | 307 ft | 13 kts | 289° |
| 2026-05-05 13:48 | 39.87391 | 4.22154 | 307 ft | 17 kts | 252° |
| 2026-05-05 13:48 | 39.87225 | 4.22061 | 301 ft | 51 kts | 189° |
| 2026-05-05 13:49 | 39.86635 | 4.21933 | 296 ft | 117 kts | 189° |
| 2026-05-05 13:49 | 39.85647 | 4.21743 | 379 ft | 160 kts | 187° |
| 2026-05-05 13:49 | 39.84539 | 4.21509 | 930 ft | 164 kts | 189° |
| 2026-05-05 13:49 | 39.83419 | 4.21259 | 1584 ft | 166 kts | 189° |
| 2026-05-05 13:50 | 39.82290 | 4.21018 | 2208 ft | 167 kts | 189° |
| 2026-05-05 13:50 | 39.81105 | 4.20768 | 2536 ft | 180 kts | 190° |
| 2026-05-05 13:50 | 39.79808 | 4.20491 | 2842 ft | 197 kts | 189° |
| 2026-05-05 13:50 | 39.78392 | 4.20191 | 3115 ft | 217 kts | 189° |
| 2026-05-05 13:51 | 39.76871 | 4.19675 | 3461 ft | 235 kts | 209° |
| 2026-05-05 13:51 | 39.75729 | 4.18089 | 3826 ft | 253 kts | 242° |
| 2026-05-05 13:51 | 39.75312 | 4.15853 | 4462 ft | 264 kts | 269° |
| 2026-05-05 13:51 | 39.75806 | 4.13590 | 5204 ft | 272 kts | 299° |
| 2026-05-05 13:52 | 39.77135 | 4.11831 | 5987 ft | 279 kts | 317° |
| 2026-05-05 13:52 | 39.78659 | 4.10236 | 6728 ft | 281 kts | 316° |
| 2026-05-05 13:52 | 39.80167 | 4.08630 | 7466 ft | 284 kts | 316° |
| 2026-05-05 13:52 | 39.81681 | 4.07006 | 8231 ft | 286 kts | 316° |
| 2026-05-05 13:53 | 39.83201 | 4.05372 | 8991 ft | 287 kts | 315° |
| 2026-05-05 13:53 | 39.84750 | 4.03707 | 9762 ft | 289 kts | 315° |
| 2026-05-05 13:53 | 39.86297 | 4.02041 | 10428 ft | 293 kts | 315° |
| 2026-05-05 13:53 | 39.87906 | 4.00301 | 10765 ft | 309 kts | 315° |
| 2026-05-05 13:54 | 39.89585 | 3.98480 | 11061 ft | 325 kts | 315° |
| 2026-05-05 13:54 | 39.91373 | 3.96546 | 11353 ft | 341 kts | 316° |
| 2026-05-05 13:54 | 39.93245 | 3.94526 | 11633 ft | 357 kts | 315° |
| 2026-05-05 13:54 | 39.95175 | 3.92442 | 11997 ft | 368 kts | 316° |
| 2026-05-05 13:55 | 39.97173 | 3.90290 | 12584 ft | 372 kts | 315° |
| 2026-05-05 13:55 | 39.99143 | 3.88169 | 13202 ft | 374 kts | 315° |
| 2026-05-05 13:55 | 40.01162 | 3.85989 | 13821 ft | 376 kts | 315° |
| 2026-05-05 13:55 | 40.03156 | 3.83831 | 14411 ft | 378 kts | 315° |
| 2026-05-05 13:56 | 40.05196 | 3.81619 | 14996 ft | 380 kts | 315° |
| 2026-05-05 13:56 | 40.07225 | 3.79416 | 15534 ft | 383 kts | 315° |
| 2026-05-05 13:56 | 40.09268 | 3.77199 | 15858 ft | 386 kts | 315° |
| 2026-05-05 13:56 | 40.11335 | 3.74953 | 15908 ft | 385 kts | 315° |
| 2026-05-05 13:57 | 40.13407 | 3.72699 | 15919 ft | 385 kts | 315° |
| 2026-05-05 13:57 | 40.15462 | 3.70464 | 15916 ft | 384 kts | 315° |
| 2026-05-05 13:57 | 40.16828 | 3.68977 | 15901 ft | 384 kts | 315° |
| 2026-05-05 13:57 | 40.19580 | 3.65976 | 15927 ft | 385 kts | 314° |
| 2026-05-05 13:58 | 40.21635 | 3.63733 | 15916 ft | 386 kts | 315° |
| 2026-05-05 13:58 | 40.23685 | 3.61494 | 15911 ft | 385 kts | 315° |
| 2026-05-05 13:58 | 40.25741 | 3.59248 | 15917 ft | 385 kts | 314° |
| 2026-05-05 13:58 | 40.27787 | 3.57009 | 15916 ft | 385 kts | 315° |
| 2026-05-05 13:59 | 40.31895 | 3.52509 | 15910 ft | 385 kts | 315° |
| 2026-05-05 13:59 | 40.33968 | 3.50235 | 15896 ft | 385 kts | 315° |
| 2026-05-05 14:00 | 40.38083 | 3.45717 | 15912 ft | 385 kts | 315° |
| 2026-05-05 14:00 | 40.39433 | 3.44234 | 15899 ft | 385 kts | 315° |
| 2026-05-05 14:00 | 40.42193 | 3.41190 | 15915 ft | 385 kts | 314° |
| 2026-05-05 14:00 | 40.44150 | 3.38833 | 15910 ft | 383 kts | 310° |
| 2026-05-05 14:01 | 40.45999 | 3.36312 | 15905 ft | 380 kts | 307° |
| 2026-05-05 14:01 | 40.47772 | 3.33752 | 15905 ft | 380 kts | 306° |
| 2026-05-05 14:01 | 40.49540 | 3.31176 | 15909 ft | 380 kts | 306° |
| 2026-05-05 14:01 | 40.51310 | 3.28592 | 15905 ft | 380 kts | 306° |
| 2026-05-05 14:02 | 40.53097 | 3.25985 | 15900 ft | 381 kts | 306° |
| 2026-05-05 14:02 | 40.54852 | 3.23426 | 15898 ft | 381 kts | 306° |
| 2026-05-05 14:02 | 40.56625 | 3.20842 | 15901 ft | 380 kts | 306° |
| 2026-05-05 14:02 | 40.58408 | 3.18241 | 15902 ft | 380 kts | 306° |
| 2026-05-05 14:03 | 40.60181 | 3.15652 | 15900 ft | 380 kts | 306° |
| 2026-05-05 14:03 | 40.61938 | 3.13086 | 15902 ft | 381 kts | 306° |
| 2026-05-05 14:03 | 40.63718 | 3.10483 | 15898 ft | 381 kts | 306° |
| 2026-05-05 14:03 | 40.65483 | 3.07899 | 15894 ft | 381 kts | 306° |
| 2026-05-05 14:04 | 40.67264 | 3.05294 | 15901 ft | 380 kts | 306° |
| 2026-05-05 14:04 | 40.69014 | 3.02731 | 15737 ft | 374 kts | 306° |
| 2026-05-05 14:04 | 40.70743 | 3.00193 | 15135 ft | 374 kts | 306° |
| 2026-05-05 14:04 | 40.72485 | 2.97627 | 14479 ft | 374 kts | 307° |
| 2026-05-05 14:05 | 40.74205 | 2.95098 | 13918 ft | 372 kts | 307° |
| 2026-05-05 14:05 | 40.75921 | 2.92574 | 13350 ft | 370 kts | 307° |
| 2026-05-05 14:05 | 40.77774 | 2.90196 | 12894 ft | 369 kts | 317° |
| 2026-05-05 14:05 | 40.79950 | 2.88468 | 12683 ft | 364 kts | 331° |
| 2026-05-05 14:06 | 40.82273 | 2.87256 | 12484 ft | 354 kts | 335° |
| 2026-05-05 14:06 | 40.84576 | 2.86165 | 12243 ft | 345 kts | 336° |
| 2026-05-05 14:06 | 40.86818 | 2.85113 | 11844 ft | 342 kts | 336° |
| 2026-05-05 14:06 | 40.89044 | 2.84052 | 11398 ft | 340 kts | 336° |
| 2026-05-05 14:07 | 40.91248 | 2.82993 | 11113 ft | 332 kts | 336° |
| 2026-05-05 14:07 | 40.92685 | 2.82301 | 10989 ft | 325 kts | 336° |
| 2026-05-05 14:07 | 40.95491 | 2.80942 | 10740 ft | 312 kts | 336° |
| 2026-05-05 14:07 | 40.97478 | 2.79977 | 10556 ft | 303 kts | 336° |
| 2026-05-05 14:08 | 40.99457 | 2.79011 | 10244 ft | 299 kts | 336° |
| 2026-05-05 14:08 | 41.01387 | 2.78066 | 9941 ft | 296 kts | 336° |
| 2026-05-05 14:08 | 41.03326 | 2.77119 | 9906 ft | 296 kts | 336° |
| 2026-05-05 14:08 | 41.04614 | 2.76490 | 9778 ft | 293 kts | 336° |
| 2026-05-05 14:09 | 41.06531 | 2.75553 | 9355 ft | 294 kts | 336° |
| 2026-05-05 14:09 | 41.08448 | 2.74616 | 8944 ft | 293 kts | 336° |
| 2026-05-05 14:09 | 41.10356 | 2.73683 | 8582 ft | 291 kts | 336° |
| 2026-05-05 14:09 | 41.12865 | 2.72454 | 8096 ft | 288 kts | 337° |
| 2026-05-05 14:10 | 41.14755 | 2.71527 | 7730 ft | 286 kts | 337° |
| 2026-05-05 14:10 | 41.15994 | 2.70920 | 7481 ft | 285 kts | 337° |
| 2026-05-05 14:10 | 41.17857 | 2.70005 | 7116 ft | 282 kts | 337° |
| 2026-05-05 14:10 | 41.19697 | 2.69104 | 6743 ft | 281 kts | 338° |
| 2026-05-05 14:11 | 41.22118 | 2.67914 | 6257 ft | 278 kts | 337° |
| 2026-05-05 14:11 | 41.23797 | 2.66701 | 5842 ft | 273 kts | 314° |
| 2026-05-05 14:11 | 41.24849 | 2.64677 | 5574 ft | 262 kts | 295° |
| 2026-05-05 14:11 | 41.25630 | 2.62546 | 5337 ft | 256 kts | 293° |
| 2026-05-05 14:12 | 41.26407 | 2.60419 | 4998 ft | 254 kts | 294° |
| 2026-05-05 14:12 | 41.27208 | 2.58339 | 4726 ft | 250 kts | 296° |
| 2026-05-05 14:12 | 41.28013 | 2.56345 | 4524 ft | 243 kts | 296° |
| 2026-05-05 14:12 | 41.28834 | 2.54358 | 4204 ft | 242 kts | 297° |
| 2026-05-05 14:13 | 41.29645 | 2.52427 | 3867 ft | 242 kts | 297° |
| 2026-05-05 14:13 | 41.30476 | 2.50466 | 3526 ft | 241 kts | 298° |
| 2026-05-05 14:13 | 41.31302 | 2.48524 | 3193 ft | 241 kts | 298° |
| 2026-05-05 14:13 | 41.32119 | 2.46609 | 2862 ft | 240 kts | 298° |
| 2026-05-05 14:14 | 41.32946 | 2.44672 | 2530 ft | 240 kts | 298° |
| 2026-05-05 14:14 | 41.33773 | 2.42732 | 2276 ft | 238 kts | 298° |
| 2026-05-05 14:14 | 41.34588 | 2.40822 | 2258 ft | 241 kts | 298° |
| 2026-05-05 14:14 | 41.35422 | 2.38866 | 2246 ft | 235 kts | 298° |
| 2026-05-05 14:15 | 41.36205 | 2.37036 | 2232 ft | 220 kts | 298° |
| 2026-05-05 14:15 | 41.36938 | 2.35318 | 2234 ft | 211 kts | 298° |
| 2026-05-05 14:15 | 41.37633 | 2.33591 | 2335 ft | 211 kts | 290° |
| 2026-05-05 14:15 | 41.37732 | 2.31699 | 2283 ft | 207 kts | 257° |
| 2026-05-05 14:16 | 41.37286 | 2.29902 | 2274 ft | 202 kts | 246° |
| 2026-05-05 14:16 | 41.36730 | 2.28232 | 2252 ft | 196 kts | 243° |
| 2026-05-05 14:16 | 41.36150 | 2.26586 | 2254 ft | 196 kts | 243° |
| 2026-05-05 14:16 | 41.35574 | 2.24945 | 2249 ft | 195 kts | 243° |
| 2026-05-05 14:17 | 41.35027 | 2.23361 | 2119 ft | 178 kts | 244° |
| 2026-05-05 14:17 | 41.34523 | 2.21890 | 1875 ft | 174 kts | 244° |
| 2026-05-05 14:17 | 41.34018 | 2.20421 | 1641 ft | 175 kts | 244° |
| 2026-05-05 14:17 | 41.33528 | 2.18990 | 1407 ft | 166 kts | 243° |
| 2026-05-05 14:18 | 41.33049 | 2.17592 | 1189 ft | 164 kts | 243° |
| 2026-05-05 14:18 | 41.32583 | 2.16232 | 978 ft | 161 kts | 243° |
| 2026-05-05 14:18 | 41.32142 | 2.14943 | 764 ft | 146 kts | 243° |
| 2026-05-05 14:18 | 41.31726 | 2.13727 | 575 ft | 143 kts | 242° |
| 2026-05-05 14:19 | 41.31318 | 2.12523 | 436 ft | 143 kts | 243° |
| 2026-05-05 14:19 | 41.30896 | 2.11298 | 262 ft | 144 kts | 242° |
| 2026-05-05 14:19 | 41.30489 | 2.10115 | 46 ft | 142 kts | 243° |
| 2026-05-05 14:19 | 41.30084 | 2.08931 | 25 ft | 119 kts | 245° |
| 2026-05-05 14:20 | 41.29842 | 2.08319 | 25 ft | 31 kts | 223° |
| 2026-05-05 14:20 | 41.29733 | 2.08219 | 25 ft | 18 kts | 211° |
| 2026-05-05 14:20 | 41.29626 | 2.08218 | 25 ft | 16 kts | 153° |
| 2026-05-05 14:20 | 41.29527 | 2.08281 | 24 ft | 15 kts | 155° |
| 2026-05-05 14:21 | 41.29425 | 2.08343 | 25 ft | 15 kts | 156° |
| 2026-05-05 14:21 | 41.29325 | 2.08404 | 24 ft | 15 kts | 156° |
| 2026-05-05 14:21 | 41.29222 | 2.08454 | 24 ft | 15 kts | 181° |
| 2026-05-05 14:21 | 41.29121 | 2.08409 | 24 ft | 15 kts | 199° |
| 2026-05-05 14:22 | 41.29037 | 2.08329 | 24 ft | 15 kts | 241° |
| 2026-05-05 14:22 | 41.29003 | 2.08225 | 24 ft | 8 kts | 272° |
| 2026-05-05 14:22 | 41.29048 | 2.08177 | 24 ft | 9 kts | 335° |
| 2026-05-05 14:22 | 41.29068 | 2.08165 | 24 ft | 0 kts | 335° |